createdAt,value
2023-12-08T00:01:34.830Z,73.85
2023-12-08T00:04:41.444Z,73.76
2023-12-08T00:07:47.875Z,73.71
2023-12-08T00:10:53.783Z,73.20
2023-12-08T00:13:59.543Z,73.27
2023-12-08T00:17:06.077Z,73.70
2023-12-08T00:20:13.132Z,73.54
2023-12-08T00:23:19.729Z,73.67
2023-12-08T00:26:27.161Z,73.34
2023-12-08T00:29:33.992Z,72.86
2023-12-08T00:32:40.602Z,72.68
2023-12-08T00:35:46.763Z,73.37
2023-12-08T00:38:52.899Z,73.79
2023-12-08T00:41:59.431Z,73.70
2023-12-08T00:45:05.648Z,73.33
2023-12-08T00:48:12.364Z,73.12
2023-12-08T00:51:18.733Z,73.18
2023-12-08T00:54:24.592Z,73.22
2023-12-08T00:57:33.012Z,72.72
2023-12-08T01:00:39.740Z,72.49
2023-12-08T01:03:46.249Z,71.78
2023-12-08T01:06:51.844Z,72.98
2023-12-08T01:09:58.472Z,73.25
2023-12-08T01:13:06.906Z,73.36
2023-12-08T01:16:15.179Z,73.72
2023-12-08T01:19:21.969Z,73.79
2023-12-08T01:22:31.992Z,73.91
2023-12-08T01:25:37.916Z,73.45
2023-12-08T01:28:43.051Z,73.52
2023-12-08T01:31:47.806Z,73.38
2023-12-08T01:34:53.578Z,74.12
2023-12-08T01:37:59.944Z,74.59
2023-12-08T01:41:05.308Z,74.93
2023-12-08T01:44:10.874Z,74.64
2023-12-08T01:47:17.094Z,75.05
2023-12-08T01:50:23.056Z,75.07
2023-12-08T01:53:29.355Z,75.38
2023-12-08T01:56:35.731Z,75.41
2023-12-08T01:59:42.230Z,75.28
2023-12-08T02:02:48.822Z,75.44
2023-12-08T02:05:59.566Z,75.85
2023-12-08T02:09:07.025Z,76.13
2023-12-08T02:12:06.762Z,76.23
2023-12-08T02:15:13.862Z,75.69
2023-12-08T02:18:20.113Z,75.76
2023-12-08T02:21:26.865Z,75.95
2023-12-08T02:24:32.832Z,75.96
2023-12-08T02:27:39.251Z,75.78
2023-12-08T02:30:45.627Z,76.12
2023-12-08T02:33:50.585Z,76.34
2023-12-08T02:36:55.672Z,76.06
2023-12-08T02:40:01.717Z,76.04
2023-12-08T02:43:09.704Z,76.18
2023-12-08T02:46:16.026Z,76.19
2023-12-08T02:49:22.633Z,76.06
2023-12-08T02:52:22.236Z,75.75
2023-12-08T02:55:08.746Z,75.20
2023-12-08T02:58:01.568Z,74.79
2023-12-08T03:00:53.958Z,74.36
2023-12-08T03:04:01.234Z,74.65
2023-12-08T03:07:08.712Z,74.48
2023-12-08T03:10:16.218Z,74.68
2023-12-08T03:13:22.481Z,75.23
2023-12-08T03:16:30.768Z,75.25
2023-12-08T03:23:31.697Z,75.27
2023-12-08T03:26:38.980Z,75.36
2023-12-08T03:29:50.576Z,74.36
2023-12-08T03:33:01.217Z,73.95
2023-12-08T03:36:11.471Z,74.31
2023-12-08T03:39:20.048Z,74.27
2023-12-08T03:42:21.311Z,74.33
2023-12-08T03:45:31.703Z,73.98
2023-12-08T03:48:53.461Z,74.06
2023-12-08T03:52:33.269Z,74.14
2023-12-08T03:55:41.185Z,73.55
2023-12-08T03:58:47.612Z,73.81
2023-12-08T04:01:54.012Z,73.87
2023-12-08T04:04:59.595Z,73.74
2023-12-08T04:08:06.204Z,73.92
2023-12-08T04:11:12.432Z,74.22
2023-12-08T04:14:17.812Z,74.08
2023-12-08T04:17:23.789Z,74.31
2023-12-08T04:20:31.163Z,74.05
2023-12-08T04:23:37.070Z,73.84
2023-12-08T04:26:43.064Z,74.34
2023-12-08T04:29:49.985Z,74.19
2023-12-08T04:32:56.474Z,73.85
2023-12-08T04:36:02.938Z,74.41
2023-12-08T04:39:09.276Z,74.68
2023-12-08T04:42:17.492Z,74.93
2023-12-08T04:45:24.400Z,74.93
2023-12-08T04:48:31.229Z,75.17
2023-12-08T04:51:37.627Z,75.02
2023-12-08T04:54:42.057Z,75.52
2023-12-08T04:57:47.926Z,75.55
2023-12-08T05:00:54.536Z,75.33
2023-12-08T05:04:00.749Z,75.39
2023-12-08T05:07:07.230Z,75.19
2023-12-08T05:10:13.847Z,75.22
2023-12-08T05:13:20.655Z,75.09
2023-12-08T05:16:27.141Z,74.66
2023-12-08T05:19:33.946Z,74.44
2023-12-08T05:22:40.322Z,74.69
2023-12-08T05:25:47.166Z,74.72
2023-12-08T05:28:54.111Z,75.96
2023-12-08T05:32:00.095Z,75.72
2023-12-08T05:35:07.059Z,76.02
2023-12-08T05:38:13.880Z,75.80
2023-12-08T05:41:21.010Z,75.83
2023-12-08T05:44:26.867Z,76.10
2023-12-08T05:47:32.695Z,75.62
2023-12-08T05:50:39.051Z,75.67
2023-12-08T05:53:45.988Z,75.84
2023-12-08T05:56:52.883Z,75.61
2023-12-08T05:59:59.661Z,75.17
2023-12-08T06:03:06.794Z,74.98
2023-12-08T06:06:14.253Z,75.05
2023-12-08T06:09:21.971Z,74.72
2023-12-08T06:12:22.592Z,74.60
2023-12-08T06:15:22.296Z,74.45
2023-12-08T06:18:29.394Z,74.80
2023-12-08T06:21:36.127Z,74.26
2023-12-08T06:24:42.662Z,74.22
2023-12-08T06:27:49.428Z,74.23
2023-12-08T06:30:55.258Z,73.69
2023-12-08T06:34:09.802Z,73.56
2023-12-08T06:37:09.563Z,73.90
2023-12-08T06:40:15.932Z,75.16
2023-12-08T06:43:22.757Z,75.65
2023-12-08T06:46:28.864Z,75.60
2023-12-08T06:49:35.477Z,75.83
2023-12-08T06:52:42.213Z,75.90
2023-12-08T06:55:49.027Z,75.74
2023-12-08T06:58:56.266Z,75.21
2023-12-08T07:02:03.812Z,74.64
2023-12-08T07:05:12.792Z,74.65
2023-12-08T07:08:18.537Z,74.35
2023-12-08T07:11:25.783Z,74.46
2023-12-08T07:14:32.788Z,74.75
2023-12-08T07:17:39.797Z,75.11
2023-12-08T07:20:46.011Z,75.07
2023-12-08T07:23:55.696Z,75.18
2023-12-08T07:27:03.254Z,75.24
2023-12-08T07:30:12.644Z,74.76
2023-12-08T07:33:19.328Z,74.79
2023-12-08T07:36:19.944Z,74.80
2023-12-08T07:39:14.703Z,74.54
2023-12-08T07:42:20.388Z,74.58
2023-12-08T07:45:27.886Z,74.37
2023-12-08T07:48:34.731Z,74.83
2023-12-08T07:51:41.843Z,75.20
2023-12-08T07:54:48.243Z,75.28
2023-12-08T07:57:54.688Z,75.41
2023-12-08T08:01:01.680Z,75.65
2023-12-08T08:04:08.159Z,75.97
2023-12-08T08:07:15.351Z,75.99
2023-12-08T08:10:22.904Z,76.12
2023-12-08T08:13:29.743Z,76.43
2023-12-08T08:16:36.350Z,76.06
2023-12-08T08:19:43.554Z,75.94
2023-12-08T08:22:50.827Z,75.84
2023-12-08T08:25:59.771Z,75.14
2023-12-08T08:29:06.537Z,75.07
2023-12-08T08:32:13.878Z,75.25
2023-12-08T08:35:23.479Z,75.01
2023-12-08T08:38:31.916Z,74.77
2023-12-08T08:41:39.602Z,74.25
2023-12-08T08:44:46.046Z,74.21
2023-12-08T08:47:53.052Z,73.69
2023-12-08T08:51:02.583Z,73.69
2023-12-08T08:54:10.539Z,74.07
2023-12-08T08:57:16.902Z,73.75
2023-12-08T09:00:26.710Z,73.71
2023-12-08T09:03:33.440Z,74.54
2023-12-08T09:06:40.537Z,75.08
2023-12-08T09:16:44.286Z,75.41
2023-12-08T09:23:16.608Z,75.38
2023-12-08T09:26:31.660Z,75.67
2023-12-08T09:44:36.032Z,75.95
2023-12-08T09:47:56.827Z,76.03
2023-12-08T09:55:28.519Z,75.43
2023-12-08T10:13:50.444Z,74.19
2023-12-08T10:17:01.522Z,74.30
2023-12-08T10:20:37.955Z,74.58
2023-12-08T10:23:48.506Z,74.61
2023-12-08T10:26:55.846Z,74.29
2023-12-08T10:33:37.710Z,73.83
2023-12-08T10:37:44.052Z,73.79
2023-12-08T10:45:00.727Z,72.80
2023-12-08T10:48:30.305Z,72.51
2023-12-08T10:51:40.837Z,72.48
2023-12-08T10:55:06.358Z,72.80
2023-12-08T10:58:39.043Z,72.67
2023-12-08T11:02:03.389Z,72.51
2023-12-08T11:05:41.831Z,72.96
2023-12-08T11:08:59.403Z,72.88
2023-12-08T11:12:14.620Z,73.34
2023-12-08T11:15:26.940Z,73.28
2023-12-08T11:18:43.401Z,72.80
2023-12-08T11:21:55.282Z,72.34
2023-12-08T11:25:05.667Z,72.65
2023-12-08T11:28:35.186Z,72.41
2023-12-08T11:32:06.830Z,72.76
2023-12-08T11:35:27.635Z,72.81
2023-12-08T11:38:47.570Z,73.25
2023-12-08T11:42:03.425Z,73.52
2023-12-08T11:45:14.115Z,73.67
2023-12-08T11:48:27.530Z,74.67
2023-12-08T11:51:36.077Z,75.52
2023-12-08T11:54:45.387Z,75.50
2023-12-08T11:57:57.881Z,75.74
2023-12-08T12:01:05.966Z,76.05
2023-12-08T12:04:14.633Z,76.44
2023-12-08T12:07:27.105Z,77.24
2023-12-08T12:10:42.722Z,76.82
2023-12-08T12:13:50.916Z,77.15
2023-12-08T12:16:58.193Z,77.35
2023-12-08T12:20:08.753Z,77.05
2023-12-08T12:23:17.423Z,77.22
2023-12-08T12:26:26.161Z,77.29
2023-12-08T12:29:35.914Z,77.48
2023-12-08T12:32:42.985Z,76.85
2023-12-08T12:35:54.330Z,77.28
2023-12-08T12:39:00.324Z,76.97
2023-12-08T12:42:13.876Z,77.31
2023-12-08T12:45:21.660Z,77.62
2023-12-08T12:48:38.547Z,77.62
2023-12-08T12:51:53.593Z,77.70
2023-12-08T12:54:59.097Z,76.77
2023-12-08T12:58:06.721Z,76.99
2023-12-08T13:01:29.074Z,77.44
2023-12-08T13:04:44.085Z,77.67
2023-12-08T13:07:54.433Z,77.44
2023-12-08T13:11:04.703Z,77.11
2023-12-08T13:14:16.527Z,76.94
2023-12-08T13:17:36.144Z,77.09
2023-12-08T13:20:43.161Z,77.48
2023-12-08T13:23:50.320Z,77.08
2023-12-08T13:26:55.842Z,77.09
2023-12-08T13:30:04.060Z,77.02
2023-12-08T13:33:10.781Z,76.60
2023-12-08T13:36:41.987Z,76.38
2023-12-08T13:40:07.579Z,76.76
2023-12-08T13:43:15.633Z,77.21
2023-12-08T13:46:22.729Z,76.98
2023-12-08T13:49:28.994Z,76.11
2023-12-08T13:52:35.421Z,76.46
2023-12-08T13:55:42.091Z,76.41
2023-12-08T13:58:47.517Z,77.01
2023-12-08T14:01:53.701Z,77.24
2023-12-08T14:05:00.330Z,77.53
2023-12-08T14:08:07.504Z,77.57
2023-12-08T14:11:16.418Z,77.59
2023-12-08T14:14:22.639Z,77.66
2023-12-08T14:17:28.814Z,77.98
2023-12-08T14:20:34.320Z,78.12
2023-12-08T14:23:40.155Z,77.98
2023-12-08T14:27:25.109Z,77.81
2023-12-08T14:30:42.386Z,77.90
2023-12-08T14:38:14.792Z,77.79
2023-12-08T14:41:20.841Z,78.30
2023-12-08T14:44:27.341Z,78.84
2023-12-08T14:47:35.046Z,78.95
2023-12-08T14:50:41.531Z,78.62
2023-12-08T14:53:47.587Z,78.56
2023-12-08T14:56:59.060Z,78.60
2023-12-08T15:00:06.014Z,78.74
2023-12-08T15:03:13.664Z,78.57
2023-12-08T15:06:20.575Z,78.36
2023-12-08T15:09:26.816Z,78.64
2023-12-08T15:12:33.335Z,79.07
2023-12-08T15:15:45.966Z,79.15
2023-12-08T15:18:46.545Z,79.00
2023-12-08T15:21:56.546Z,78.59
2023-12-08T15:25:01.390Z,79.25
2023-12-08T15:28:06.925Z,79.27
2023-12-08T15:31:12.763Z,79.89
2023-12-08T15:34:19.650Z,80.10
2023-12-08T15:37:26.093Z,79.91
2023-12-08T15:40:32.000Z,79.89
2023-12-08T15:43:38.824Z,79.72
2023-12-08T15:46:46.145Z,79.83
2023-12-08T15:49:53.376Z,80.02
2023-12-08T15:53:00.166Z,79.68
2023-12-08T15:56:06.443Z,79.60
2023-12-08T15:59:13.338Z,79.74
2023-12-08T16:02:19.930Z,79.63
2023-12-08T16:05:25.432Z,80.25
2023-12-08T16:09:07.363Z,80.12
2023-12-08T16:12:16.183Z,79.22
2023-12-08T16:15:32.394Z,77.50
2023-12-08T16:18:39.851Z,77.75
2023-12-08T16:21:47.122Z,78.71
2023-12-08T16:24:59.804Z,78.30
2023-12-08T16:28:06.010Z,78.42
2023-12-08T16:31:12.466Z,78.17
2023-12-08T16:34:18.724Z,78.25
2023-12-08T16:37:24.964Z,78.14
2023-12-08T16:40:30.627Z,77.95
2023-12-08T16:43:37.528Z,77.95
2023-12-08T16:46:44.318Z,77.93
2023-12-08T16:49:50.602Z,77.68
2023-12-08T16:52:59.075Z,77.47
2023-12-08T16:56:05.972Z,77.64
2023-12-08T16:59:12.177Z,77.57
2023-12-08T17:02:19.351Z,77.53
2023-12-08T17:05:25.598Z,77.17
2023-12-08T17:08:31.730Z,77.10
2023-12-08T17:11:37.957Z,77.16
2023-12-08T17:14:44.689Z,77.87
2023-12-08T17:17:51.729Z,77.59
2023-12-08T17:20:58.377Z,77.23
2023-12-08T17:24:05.240Z,77.10
2023-12-08T17:27:11.253Z,77.11
2023-12-08T17:30:17.165Z,76.97
2023-12-08T17:33:23.992Z,76.64
2023-12-08T17:36:31.007Z,76.46
2023-12-08T17:39:36.851Z,76.74
2023-12-08T17:42:42.942Z,76.65
2023-12-08T17:45:49.524Z,76.97
2023-12-08T17:48:56.046Z,77.22
2023-12-08T17:52:03.761Z,77.20
2023-12-08T17:55:13.803Z,77.27
2023-12-08T17:58:20.439Z,77.24
2023-12-08T18:01:26.580Z,77.22
2023-12-08T18:04:33.259Z,76.75
2023-12-08T18:07:40.511Z,77.29
2023-12-08T18:10:47.135Z,78.09
2023-12-08T18:13:54.072Z,78.09
2023-12-08T18:17:00.250Z,78.07
2023-12-08T18:20:08.215Z,77.97
2023-12-08T18:23:21.582Z,77.99
2023-12-08T18:26:31.632Z,77.63
2023-12-08T18:29:37.907Z,77.50
2023-12-08T18:32:43.499Z,77.66
2023-12-08T18:35:49.885Z,77.52
2023-12-08T18:38:56.011Z,77.65
2023-12-08T18:42:03.008Z,77.83
2023-12-08T18:45:12.856Z,77.84
2023-12-08T18:48:20.452Z,77.82
2023-12-08T18:51:27.849Z,78.19
2023-12-08T18:54:35.229Z,78.03
2023-12-08T18:57:41.034Z,77.82
2023-12-08T19:00:48.974Z,77.87
2023-12-08T19:03:56.204Z,77.81
2023-12-08T19:07:02.752Z,77.55
2023-12-08T19:10:08.973Z,76.92
2023-12-08T19:13:14.745Z,76.84
2023-12-08T19:16:21.295Z,77.04
2023-12-08T19:19:28.999Z,77.00
2023-12-08T19:22:34.411Z,76.91
2023-12-08T19:25:41.059Z,76.73
2023-12-08T19:28:47.623Z,76.44
2023-12-08T19:31:54.757Z,76.74
2023-12-08T19:35:01.068Z,76.81
2023-12-08T19:38:06.920Z,76.60
2023-12-08T19:41:13.322Z,76.68
2023-12-08T19:44:18.809Z,76.61
2023-12-08T19:47:24.483Z,76.50
2023-12-08T19:50:31.404Z,76.91
2023-12-08T19:53:37.333Z,76.88
2023-12-08T19:56:44.691Z,76.88
2023-12-08T19:59:50.991Z,76.97
2023-12-08T20:02:58.418Z,77.23
2023-12-08T20:06:05.606Z,76.96
2023-12-08T20:09:11.628Z,76.76
2023-12-08T20:12:18.496Z,76.53
2023-12-08T20:15:28.259Z,76.28
2023-12-08T20:18:33.046Z,76.16
2023-12-08T20:21:39.228Z,76.07
2023-12-08T20:24:45.245Z,76.41
2023-12-08T20:27:53.906Z,76.30
2023-12-08T20:30:59.829Z,76.45
2023-12-08T20:34:07.565Z,76.83
2023-12-08T20:37:13.789Z,76.42
2023-12-08T20:40:22.195Z,76.06
2023-12-08T20:43:29.825Z,76.50
2023-12-08T20:46:36.575Z,76.55
2023-12-08T20:49:43.007Z,76.46
2023-12-08T20:52:49.777Z,76.53
2023-12-08T20:55:55.471Z,76.05
2023-12-08T20:59:01.628Z,76.22
2023-12-08T21:02:08.105Z,76.58
2023-12-08T21:05:16.093Z,76.46
2023-12-08T21:08:22.296Z,76.08
2023-12-08T21:11:29.412Z,75.77
2023-12-08T21:14:35.526Z,75.49
2023-12-08T21:17:42.220Z,75.56
2023-12-08T21:20:48.442Z,75.20
2023-12-08T21:23:54.747Z,75.15
2023-12-08T21:27:01.218Z,75.22
2023-12-08T21:30:07.735Z,75.87
2023-12-08T21:33:13.933Z,75.58
2023-12-08T21:36:21.295Z,75.76
2023-12-08T21:39:27.680Z,75.64
2023-12-08T21:42:34.282Z,75.65
2023-12-08T21:45:41.362Z,75.65
2023-12-08T21:48:51.645Z,75.87
2023-12-08T21:51:58.439Z,75.97
2023-12-08T21:55:03.819Z,75.69
2023-12-08T21:58:09.662Z,75.64
2023-12-08T22:01:15.380Z,75.76
2023-12-08T22:04:21.568Z,76.37
2023-12-08T22:07:28.372Z,76.40
2023-12-08T22:10:34.846Z,76.35
2023-12-08T22:13:40.467Z,76.69
2023-12-08T22:16:45.928Z,76.75
2023-12-08T22:19:52.614Z,76.88
2023-12-08T22:23:00.046Z,76.07
2023-12-08T22:26:08.225Z,76.83
2023-12-08T22:29:13.734Z,76.36
2023-12-08T22:32:20.532Z,76.78
2023-12-08T22:35:26.229Z,77.18
2023-12-08T22:38:32.096Z,77.44
2023-12-08T22:41:38.523Z,77.97
2023-12-08T22:44:44.165Z,77.91
2023-12-08T22:47:50.589Z,77.66
2023-12-08T22:51:04.122Z,77.52
2023-12-08T22:54:05.255Z,77.08
2023-12-08T22:57:11.436Z,77.13
2023-12-08T23:00:20.410Z,76.88
2023-12-08T23:03:26.232Z,76.72
2023-12-08T23:06:32.419Z,76.81
2023-12-08T23:09:39.393Z,76.56
2023-12-08T23:12:45.105Z,75.97
2023-12-08T23:15:51.236Z,75.78
2023-12-08T23:18:57.550Z,75.71
2023-12-08T23:22:04.336Z,75.51
2023-12-08T23:25:12.061Z,75.53
2023-12-08T23:28:18.417Z,75.78
2023-12-08T23:31:25.040Z,76.38
2023-12-08T23:34:32.460Z,76.11
2023-12-08T23:37:39.400Z,76.37
2023-12-08T23:40:46.292Z,76.82
2023-12-08T23:43:54.190Z,76.75
2023-12-08T23:47:00.360Z,76.66
2023-12-08T23:50:09.009Z,76.46
2023-12-08T23:53:14.414Z,76.18
2023-12-08T23:56:23.736Z,76.32
2023-12-08T23:59:29.125Z,76.94
